sensor_id;sensor_type;location;lat;lon;timestamp;pressure;altitude;pressure_sealevel;temperature;humidity
23303;BME280;11820;48.738;9.092;2023-02-28T00:02:10;96905.63;;;-0.67;100.00
23303;BME280;11820;48.738;9.092;2023-02-28T00:04:35;96903.31;;;-0.70;100.00
23303;BME280;11820;48.738;9.092;2023-02-28T00:07:01;96913.19;;;-0.78;100.00
23303;BME280;11820;48.738;9.092;2023-02-28T00:09:26;96908.59;;;-0.73;100.00
23303;BME280;11820;48.738;9.092;2023-02-28T00:11:51;96903.06;;;-0.67;100.00
23303;BME280;11820;48.738;9.092;2023-02-28T00:14:17;96906.06;;;-0.73;100.00
23303;BME280;11820;48.738;9.092;2023-02-28T00:16:42;96910.13;;;-0.71;100.00
23303;BME280;11820;48.738;9.092;2023-02-28T00:19:07;96907.47;;;-0.69;100.00
23303;BME280;11820;48.738;9.092;2023-02-28T00:21:33;96902.81;;;-0.75;100.00
23303;BME280;11820;48.738;9.092;2023-02-28T00:23:58;96905.16;;;-0.72;100.00
23303;BME280;11820;48.738;9.092;2023-02-28T00:26:23;96906.38;;;-0.78;100.00
23303;BME280;11820;48.738;9.092;2023-02-28T00:28:49;96901.22;;;-0.76;100.00
23303;BME280;11820;48.738;9.092;2023-02-28T00:31:14;96899.59;;;-0.77;100.00
23303;BME280;11820;48.738;9.092;2023-02-28T00:33:39;96902.81;;;-0.75;100.00
23303;BME280;11820;48.738;9.092;2023-02-28T00:36:08;96899.84;;;-0.69;100.00
23303;BME280;11820;48.738;9.092;2023-02-28T00:38:34;96905.53;;;-0.89;100.00
23303;BME280;11820;48.738;9.092;2023-02-28T00:40:59;96911.41;;;-0.89;100.00
23303;BME280;11820;48.738;9.092;2023-02-28T00:43:30;96902.50;;;-0.94;100.00
23303;BME280;11820;48.738;9.092;2023-02-28T00:45:55;96900.94;;;-0.84;100.00
23303;BME280;11820;48.738;9.092;2023-02-28T00:48:20;96906.34;;;-0.89;100.00
23303;BME280;11820;48.738;9.092;2023-02-28T00:50:48;96910.31;;;-0.97;100.00
23303;BME280;11820;48.738;9.092;2023-02-28T00:53:14;96911.47;;;-1.01;100.00
23303;BME280;11820;48.738;9.092;2023-02-28T00:55:39;96909.69;;;-1.12;100.00
23303;BME280;11820;48.738;9.092;2023-02-28T00:58:05;96908.44;;;-1.06;100.00
23303;BME280;11820;48.738;9.092;2023-02-28T01:00:30;96905.78;;;-1.05;100.00
23303;BME280;11820;48.738;9.092;2023-02-28T01:02:56;96899.69;;;-1.02;100.00
23303;BME280;11820;48.738;9.092;2023-02-28T01:05:21;96906.50;;;-1.03;100.00
23303;BME280;11820;48.738;9.092;2023-02-28T01:07:46;96903.69;;;-1.11;100.00
23303;BME280;11820;48.738;9.092;2023-02-28T01:10:12;96906.13;;;-1.09;100.00
23303;BME280;11820;48.738;9.092;2023-02-28T01:12:37;96897.88;;;-1.00;100.00
23303;BME280;11820;48.738;9.092;2023-02-28T01:15:03;96895.81;;;-0.95;100.00
23303;BME280;11820;48.738;9.092;2023-02-28T01:17:28;96897.47;;;-1.07;100.00
23303;BME280;11820;48.738;9.092;2023-02-28T01:19:54;96896.34;;;-1.03;100.00
23303;BME280;11820;48.738;9.092;2023-02-28T01:22:21;96894.84;;;-1.05;100.00
23303;BME280;11820;48.738;9.092;2023-02-28T01:24:46;96894.63;;;-1.02;100.00
23303;BME280;11820;48.738;9.092;2023-02-28T01:27:11;96893.94;;;-1.04;100.00
23303;BME280;11820;48.738;9.092;2023-02-28T01:29:37;96894.28;;;-1.21;100.00
23303;BME280;11820;48.738;9.092;2023-02-28T01:32:02;96890.84;;;-1.20;100.00
23303;BME280;11820;48.738;9.092;2023-02-28T01:34:27;96890.22;;;-1.11;100.00
23303;BME280;11820;48.738;9.092;2023-02-28T01:36:53;96895.69;;;-1.17;100.00
23303;BME280;11820;48.738;9.092;2023-02-28T01:39:18;96891.13;;;-1.12;100.00
23303;BME280;11820;48.738;9.092;2023-02-28T01:41:43;96889.22;;;-1.21;100.00
23303;BME280;11820;48.738;9.092;2023-02-28T01:47:12;96887.16;;;-1.16;100.00
23303;BME280;11820;48.738;9.092;2023-02-28T01:49:37;96887.38;;;-1.19;100.00
23303;BME280;11820;48.738;9.092;2023-02-28T01:52:03;96886.91;;;-1.24;100.00
23303;BME280;11820;48.738;9.092;2023-02-28T01:54:30;96886.47;;;-1.18;100.00
23303;BME280;11820;48.738;9.092;2023-02-28T01:57:01;96876.53;;;-1.21;100.00
23303;BME280;11820;48.738;9.092;2023-02-28T01:59:41;96876.03;;;-1.26;100.00
23303;BME280;11820;48.738;9.092;2023-02-28T02:02:11;96875.44;;;-1.30;100.00
23303;BME280;11820;48.738;9.092;2023-02-28T02:04:47;96873.03;;;-1.31;100.00
23303;BME280;11820;48.738;9.092;2023-02-28T02:07:16;96872.19;;;-1.32;100.00
23303;BME280;11820;48.738;9.092;2023-02-28T02:09:41;96873.81;;;-1.31;100.00
23303;BME280;11820;48.738;9.092;2023-02-28T02:15:14;96869.09;;;-1.35;100.00
23303;BME280;11820;48.738;9.092;2023-02-28T02:17:56;96860.78;;;-1.37;100.00
23303;BME280;11820;48.738;9.092;2023-02-28T02:25:56;96860.13;;;-1.28;100.00
23303;BME280;11820;48.738;9.092;2023-02-28T02:36:56;96855.88;;;-1.28;100.00
23303;BME280;11820;48.738;9.092;2023-02-28T02:42:23;96843.97;;;-1.38;100.00
23303;BME280;11820;48.738;9.092;2023-02-28T02:45:07;96844.88;;;-1.39;100.00
23303;BME280;11820;48.738;9.092;2023-02-28T02:47:35;96843.78;;;-1.24;100.00
23303;BME280;11820;48.738;9.092;2023-02-28T02:50:05;96848.75;;;-1.23;100.00
23303;BME280;11820;48.738;9.092;2023-02-28T02:52:36;96858.78;;;-1.21;100.00
23303;BME280;11820;48.738;9.092;2023-02-28T02:55:05;96852.44;;;-1.27;100.00
23303;BME280;11820;48.738;9.092;2023-02-28T02:57:52;96854.22;;;-1.29;100.00
23303;BME280;11820;48.738;9.092;2023-02-28T03:00:25;96857.22;;;-1.35;100.00
23303;BME280;11820;48.738;9.092;2023-02-28T03:02:54;96840.28;;;-1.11;100.00
23303;BME280;11820;48.738;9.092;2023-02-28T03:05:26;96847.63;;;-1.19;100.00
23303;BME280;11820;48.738;9.092;2023-02-28T03:07:53;96861.22;;;-1.20;100.00
23303;BME280;11820;48.738;9.092;2023-02-28T03:10:33;96845.41;;;-1.23;100.00
23303;BME280;11820;48.738;9.092;2023-02-28T03:16:00;96857.16;;;-1.22;100.00
23303;BME280;11820;48.738;9.092;2023-02-28T03:23:50;96861.44;;;-1.23;100.00
23303;BME280;11820;48.738;9.092;2023-02-28T03:26:22;96855.66;;;-1.25;100.00
23303;BME280;11820;48.738;9.092;2023-02-28T03:31:27;96853.28;;;-1.15;100.00
23303;BME280;11820;48.738;9.092;2023-02-28T03:36:36;96845.41;;;-1.23;100.00
23303;BME280;11820;48.738;9.092;2023-02-28T03:39:11;96846.63;;;-1.29;100.00
23303;BME280;11820;48.738;9.092;2023-02-28T03:41:45;96837.53;;;-1.31;100.00
23303;BME280;11820;48.738;9.092;2023-02-28T03:44:21;96844.00;;;-1.27;100.00
23303;BME280;11820;48.738;9.092;2023-02-28T03:47:05;96845.53;;;-1.25;100.00
23303;BME280;11820;48.738;9.092;2023-02-28T03:49:40;96846.59;;;-1.16;100.00
23303;BME280;11820;48.738;9.092;2023-02-28T03:52:12;96842.13;;;-1.13;100.00
23303;BME280;11820;48.738;9.092;2023-02-28T03:54:44;96847.41;;;-1.16;100.00
23303;BME280;11820;48.738;9.092;2023-02-28T04:00:12;96843.56;;;-1.21;100.00
23303;BME280;11820;48.738;9.092;2023-02-28T04:02:39;96846.72;;;-1.18;100.00
23303;BME280;11820;48.738;9.092;2023-02-28T04:05:06;96847.84;;;-1.22;100.00
23303;BME280;11820;48.738;9.092;2023-02-28T04:07:32;96851.56;;;-1.15;100.00
23303;BME280;11820;48.738;9.092;2023-02-28T04:09:58;96852.66;;;-1.06;100.00
23303;BME280;11820;48.738;9.092;2023-02-28T04:12:24;96844.44;;;-1.10;100.00
23303;BME280;11820;48.738;9.092;2023-02-28T04:14:49;96843.63;;;-1.10;100.00
23303;BME280;11820;48.738;9.092;2023-02-28T04:17:16;96849.63;;;-1.11;100.00
23303;BME280;11820;48.738;9.092;2023-02-28T04:19:41;96850.19;;;-1.08;100.00
23303;BME280;11820;48.738;9.092;2023-02-28T04:22:08;96846.66;;;-1.05;100.00
23303;BME280;11820;48.738;9.092;2023-02-28T04:24:34;96854.25;;;-1.05;100.00
23303;BME280;11820;48.738;9.092;2023-02-28T04:26:59;96852.38;;;-1.14;100.00
23303;BME280;11820;48.738;9.092;2023-02-28T04:29:32;96850.81;;;-1.04;100.00
23303;BME280;11820;48.738;9.092;2023-02-28T04:31:59;96851.56;;;-1.15;100.00
23303;BME280;11820;48.738;9.092;2023-02-28T04:34:29;96844.13;;;-1.05;100.00
23303;BME280;11820;48.738;9.092;2023-02-28T04:36:55;96846.97;;;-1.10;100.00
23303;BME280;11820;48.738;9.092;2023-02-28T04:39:21;96841.25;;;-1.01;100.00
23303;BME280;11820;48.738;9.092;2023-02-28T04:41:47;96841.25;;;-1.01;100.00
23303;BME280;11820;48.738;9.092;2023-02-28T04:44:12;96848.38;;;-1.06;100.00
23303;BME280;11820;48.738;9.092;2023-02-28T04:46:38;96854.19;;;-0.93;100.00
23303;BME280;11820;48.738;9.092;2023-02-28T04:49:03;96847.44;;;-1.05;100.00
23303;BME280;11820;48.738;9.092;2023-02-28T04:51:28;96841.72;;;-0.96;100.00
23303;BME280;11820;48.738;9.092;2023-02-28T04:53:54;96846.75;;;-1.07;100.00
23303;BME280;11820;48.738;9.092;2023-02-28T04:56:20;96845.28;;;-0.98;100.00
23303;BME280;11820;48.738;9.092;2023-02-28T04:58:46;96837.22;;;-0.92;100.00
23303;BME280;11820;48.738;9.092;2023-02-28T05:01:25;96845.28;;;-0.98;100.00
23303;BME280;11820;48.738;9.092;2023-02-28T05:03:53;96843.78;;;-1.01;100.00
23303;BME280;11820;48.738;9.092;2023-02-28T05:06:19;96844.44;;;-1.10;100.00
23303;BME280;11820;48.738;9.092;2023-02-28T05:08:45;96842.97;;;-1.01;100.00
23303;BME280;11820;48.738;9.092;2023-02-28T05:11:32;96843.44;;;-0.96;100.00
23303;BME280;11820;48.738;9.092;2023-02-28T05:14:05;96839.41;;;-0.99;100.00
23303;BME280;11820;48.738;9.092;2023-02-28T05:16:31;96844.84;;;-0.92;100.00
23303;BME280;11820;48.738;9.092;2023-02-28T05:18:56;96842.34;;;-1.16;100.00
23303;BME280;11820;48.738;9.092;2023-02-28T05:23:57;96853.44;;;-1.06;100.00
23303;BME280;11820;48.738;9.092;2023-02-28T05:26:23;96853.13;;;-1.01;100.00
23303;BME280;11820;48.738;9.092;2023-02-28T05:28:49;96856.66;;;-1.04;100.00
23303;BME280;11820;48.738;9.092;2023-02-28T05:31:14;96852.91;;;-0.98;100.00
23303;BME280;11820;48.738;9.092;2023-02-28T05:33:40;96869.25;;;-1.02;100.00
23303;BME280;11820;48.738;9.092;2023-02-28T05:36:06;96860.34;;;-1.08;100.00
23303;BME280;11820;48.738;9.092;2023-02-28T05:38:31;96860.28;;;-0.95;100.00
23303;BME280;11820;48.738;9.092;2023-02-28T05:40:57;96853.34;;;-1.04;100.00
23303;BME280;11820;48.738;9.092;2023-02-28T05:43:22;96859.13;;;-1.02;100.00
23303;BME280;11820;48.738;9.092;2023-02-28T05:45:48;96855.88;;;-1.04;100.00
23303;BME280;11820;48.738;9.092;2023-02-28T05:48:13;96870.22;;;-0.92;100.00
23303;BME280;11820;48.738;9.092;2023-02-28T05:50:39;96857.06;;;-0.97;100.00
23303;BME280;11820;48.738;9.092;2023-02-28T05:53:04;96866.50;;;-0.99;100.00
23303;BME280;11820;48.738;9.092;2023-02-28T05:55:30;96850.81;;;-1.04;100.00
23303;BME280;11820;48.738;9.092;2023-02-28T05:57:55;96862.78;;;-1.06;100.00
23303;BME280;11820;48.738;9.092;2023-02-28T06:00:21;96862.56;;;-1.03;100.00
23303;BME280;11820;48.738;9.092;2023-02-28T06:02:47;96867.31;;;-0.99;100.00
23303;BME280;11820;48.738;9.092;2023-02-28T06:05:17;96863.97;;;-0.99;100.00
23303;BME280;11820;48.738;9.092;2023-02-28T06:07:43;96860.50;;;-0.98;100.00
23303;BME280;11820;48.738;9.092;2023-02-28T06:10:10;96863.31;;;-0.90;100.00
23303;BME280;11820;48.738;9.092;2023-02-28T06:12:35;96865.25;;;-0.94;100.00
23303;BME280;11820;48.738;9.092;2023-02-28T06:15:01;96862.72;;;-0.94;100.00
23303;BME280;11820;48.738;9.092;2023-02-28T06:17:27;96876.81;;;-0.90;100.00
23303;BME280;11820;48.738;9.092;2023-02-28T06:19:52;96869.59;;;-0.83;100.00
23303;BME280;11820;48.738;9.092;2023-02-28T06:22:17;96866.34;;;-0.85;100.00
23303;BME280;11820;48.738;9.092;2023-02-28T06:24:42;96872.13;;;-0.83;100.00
23303;BME280;11820;48.738;9.092;2023-02-28T06:27:08;96882.50;;;-0.86;100.00
23303;BME280;11820;48.738;9.092;2023-02-28T06:29:34;96883.53;;;-0.78;100.00
23303;BME280;11820;48.738;9.092;2023-02-28T06:31:59;96890.63;;;-0.70;100.00
23303;BME280;11820;48.738;9.092;2023-02-28T06:34:25;96890.63;;;-0.70;100.00
23303;BME280;11820;48.738;9.092;2023-02-28T06:36:50;96891.81;;;-0.63;100.00
23303;BME280;11820;48.738;9.092;2023-02-28T06:39:16;96887.69;;;-0.77;100.00
23303;BME280;11820;48.738;9.092;2023-02-28T06:41:42;96897.00;;;-0.65;100.00
23303;BME280;11820;48.738;9.092;2023-02-28T06:44:13;96897.38;;;-0.58;100.00
23303;BME280;11820;48.738;9.092;2023-02-28T06:46:41;96893.91;;;-0.57;100.00
23303;BME280;11820;48.738;9.092;2023-02-28T06:49:08;96888.16;;;-0.48;100.00
23303;BME280;11820;48.738;9.092;2023-02-28T06:51:34;96891.13;;;-0.54;100.00
23303;BME280;11820;48.738;9.092;2023-02-28T06:54:00;96896.44;;;-0.57;100.00
23303;BME280;11820;48.738;9.092;2023-02-28T06:56:25;96896.22;;;-0.54;100.00
23303;BME280;11820;48.738;9.092;2023-02-28T06:58:51;96893.69;;;-0.54;100.00
23303;BME280;11820;48.738;9.092;2023-02-28T07:01:18;96893.22;;;-0.48;100.00
23303;BME280;11820;48.738;9.092;2023-02-28T07:03:44;96901.75;;;-0.60;100.00
23303;BME280;11820;48.738;9.092;2023-02-28T07:06:10;96902.00;;;-0.52;100.00
23303;BME280;11820;48.738;9.092;2023-02-28T07:08:35;96905.25;;;-0.39;100.00
23303;BME280;11820;48.738;9.092;2023-02-28T07:11:01;96905.97;;;-0.37;100.00
23303;BME280;11820;48.738;9.092;2023-02-28T07:13:27;96907.31;;;-0.44;100.00
23303;BME280;11820;48.738;9.092;2023-02-28T07:15:56;96910.78;;;-0.45;100.00
23303;BME280;11820;48.738;9.092;2023-02-28T07:18:22;96910.47;;;-0.41;100.00
23303;BME280;11820;48.738;9.092;2023-02-28T07:20:48;96911.84;;;-0.48;100.00
23303;BME280;11820;48.738;9.092;2023-02-28T07:23:14;96918.53;;;-0.47;100.00
23303;BME280;11820;48.738;9.092;2023-02-28T07:25:39;96908.00;;;-0.53;100.00
23303;BME280;11820;48.738;9.092;2023-02-28T07:28:04;96903.94;;;-0.56;100.00
23303;BME280;11820;48.738;9.092;2023-02-28T07:30:30;96913.69;;;-0.39;100.00
23303;BME280;11820;48.738;9.092;2023-02-28T07:32:55;96914.25;;;-0.46;100.00
23303;BME280;11820;48.738;9.092;2023-02-28T07:35:22;96913.53;;;-0.48;100.00
23303;BME280;11820;48.738;9.092;2023-02-28T07:37:47;96909.84;;;-0.44;100.00
23303;BME280;11820;48.738;9.092;2023-02-28T07:40:13;96921.09;;;-0.36;100.00
23303;BME280;11820;48.738;9.092;2023-02-28T07:42:40;96916.25;;;-0.28;100.00
23303;BME280;11820;48.738;9.092;2023-02-28T07:45:07;96925.16;;;-0.33;100.00
23303;BME280;11820;48.738;9.092;2023-02-28T07:47:33;96919.16;;;-0.32;100.00
23303;BME280;11820;48.738;9.092;2023-02-28T07:49:59;96920.06;;;-0.33;100.00
23303;BME280;11820;48.738;9.092;2023-02-28T07:52:24;96921.91;;;-0.35;100.00
23303;BME280;11820;48.738;9.092;2023-02-28T07:54:50;96914.84;;;-0.32;100.00
23303;BME280;11820;48.738;9.092;2023-02-28T07:57:16;96915.06;;;0.10;100.00
23303;BME280;11820;48.738;9.092;2023-02-28T07:59:42;96910.56;;;0.14;100.00
23303;BME280;11820;48.738;9.092;2023-02-28T08:02:13;96926.47;;;-0.06;100.00
23303;BME280;11820;48.738;9.092;2023-02-28T08:04:39;96922.44;;;-0.08;100.00
23303;BME280;11820;48.738;9.092;2023-02-28T08:07:04;96921.53;;;-0.07;100.00
23303;BME280;11820;48.738;9.092;2023-02-28T08:09:29;96927.44;;;0.15;100.00
23303;BME280;11820;48.738;9.092;2023-02-28T08:11:55;96933.53;;;0.12;100.00
23303;BME280;11820;48.738;9.092;2023-02-28T08:14:20;96930.56;;;0.18;100.00
23303;BME280;11820;48.738;9.092;2023-02-28T08:16:46;96934.81;;;0.07;100.00
23303;BME280;11820;48.738;9.092;2023-02-28T08:19:11;96934.59;;;0.10;100.00
23303;BME280;11820;48.738;9.092;2023-02-28T08:21:36;96924.56;;;0.30;100.00
23303;BME280;11820;48.738;9.092;2023-02-28T08:24:02;96925.13;;;0.23;100.00
23303;BME280;11820;48.738;9.092;2023-02-28T08:26:27;96920.03;;;0.23;100.00
23303;BME280;11820;48.738;9.092;2023-02-28T08:28:52;96926.53;;;0.27;100.00
23303;BME280;11820;48.738;9.092;2023-02-28T08:31:18;96921.00;;;0.33;100.00
23303;BME280;11820;48.738;9.092;2023-02-28T08:33:44;96926.53;;;0.38;100.00
23303;BME280;11820;48.738;9.092;2023-02-28T08:36:10;96924.78;;;0.16;100.00
23303;BME280;11820;48.738;9.092;2023-02-28T08:38:36;96932.06;;;0.21;100.00
23303;BME280;11820;48.738;9.092;2023-02-28T08:41:08;96925.16;;;0.34;100.00
23303;BME280;11820;48.738;9.092;2023-02-28T08:43:35;96937.00;;;0.11;100.00
23303;BME280;11820;48.738;9.092;2023-02-28T08:46:00;96935.63;;;0.07;100.00
23303;BME280;11820;48.738;9.092;2023-02-28T08:48:27;96943.00;;;0.10;100.00
23303;BME280;11820;48.738;9.092;2023-02-28T08:51:08;96938.63;;;0.12;100.00
23303;BME280;11820;48.738;9.092;2023-02-28T08:53:37;96944.63;;;0.00;100.00
23303;BME280;11820;48.738;9.092;2023-02-28T08:56:05;96952.50;;;0.08;100.00
23303;BME280;11820;48.738;9.092;2023-02-28T08:58:31;96949.03;;;0.09;100.00
23303;BME280;11820;48.738;9.092;2023-02-28T09:00:57;96949.94;;;0.08;100.00
23303;BME280;11820;48.738;9.092;2023-02-28T09:03:23;96949.63;;;0.13;100.00
23303;BME280;11820;48.738;9.092;2023-02-28T09:05:53;96953.44;;;0.18;100.00
23303;BME280;11820;48.738;9.092;2023-02-28T09:08:19;96950.53;;;0.12;100.00
23303;BME280;11820;48.738;9.092;2023-02-28T09:10:44;96951.09;;;0.04;100.00
23303;BME280;11820;48.738;9.092;2023-02-28T09:13:09;96951.13;;;0.15;100.00
23303;BME280;11820;48.738;9.092;2023-02-28T09:15:37;96951.00;;;0.17;100.00
23303;BME280;11820;48.738;9.092;2023-02-28T09:18:02;96957.84;;;0.16;100.00
23303;BME280;11820;48.738;9.092;2023-02-28T09:20:28;96952.06;;;0.36;100.00
23303;BME280;11820;48.738;9.092;2023-02-28T09:22:53;96958.88;;;0.25;100.00
23303;BME280;11820;48.738;9.092;2023-02-28T09:25:18;96956.31;;;0.14;100.00
23303;BME280;11820;48.738;9.092;2023-02-28T09:27:43;96966.38;;;0.26;100.00
23303;BME280;11820;48.738;9.092;2023-02-28T09:30:11;96953.13;;;0.34;100.00
23303;BME280;11820;48.738;9.092;2023-02-28T09:32:36;96959.00;;;0.34;100.00
23303;BME280;11820;48.738;9.092;2023-02-28T09:35:02;96956.59;;;0.33;100.00
23303;BME280;11820;48.738;9.092;2023-02-28T09:37:27;96960.41;;;0.38;100.00
23303;BME280;11820;48.738;9.092;2023-02-28T09:39:54;96962.03;;;0.39;100.00
23303;BME280;11820;48.738;9.092;2023-02-28T09:42:31;96963.53;;;0.53;100.00
23303;BME280;11820;48.738;9.092;2023-02-28T09:45:00;96970.69;;;0.48;100.00
23303;BME280;11820;48.738;9.092;2023-02-28T09:47:29;96964.56;;;0.39;100.00
23303;BME280;11820;48.738;9.092;2023-02-28T09:50:06;96964.78;;;0.58;100.00
23303;BME280;11820;48.738;9.092;2023-02-28T09:52:36;96970.34;;;0.63;100.00
23303;BME280;11820;48.738;9.092;2023-02-28T09:55:33;96972.66;;;0.55;100.00
23303;BME280;11820;48.738;9.092;2023-02-28T09:58:00;96967.69;;;0.65;100.00
23303;BME280;11820;48.738;9.092;2023-02-28T10:00:33;96969.44;;;0.64;100.00
23303;BME280;11820;48.738;9.092;2023-02-28T10:05:56;96972.44;;;0.80;100.00
23303;BME280;11820;48.738;9.092;2023-02-28T10:08:32;96978.22;;;0.71;100.00
23303;BME280;11820;48.738;9.092;2023-02-28T10:11:01;96976.03;;;0.78;100.00
23303;BME280;11820;48.738;9.092;2023-02-28T10:13:36;96973.94;;;0.83;100.00
23303;BME280;11820;48.738;9.092;2023-02-28T10:16:14;96976.34;;;0.95;100.00
23303;BME280;11820;48.738;9.092;2023-02-28T10:18:54;96982.34;;;1.05;100.00
23303;BME280;11820;48.738;9.092;2023-02-28T10:21:28;96986.28;;;1.09;100.00
23303;BME280;11820;48.738;9.092;2023-02-28T10:24:02;96982.56;;;1.24;100.00
23303;BME280;11820;48.738;9.092;2023-02-28T10:26:28;96992.84;;;1.23;100.00
23303;BME280;11820;48.738;9.092;2023-02-28T10:28:55;96993.53;;;1.36;100.00
23303;BME280;11820;48.738;9.092;2023-02-28T10:31:20;96997.13;;;1.33;100.00
23303;BME280;11820;48.738;9.092;2023-02-28T10:33:47;96993.63;;;1.45;100.00
23303;BME280;11820;48.738;9.092;2023-02-28T10:36:15;96983.22;;;1.37;100.00
23303;BME280;11820;48.738;9.092;2023-02-28T10:38:43;96987.91;;;1.21;100.00
23303;BME280;11820;48.738;9.092;2023-02-28T10:41:11;96983.00;;;1.29;100.00
23303;BME280;11820;48.738;9.092;2023-02-28T10:43:39;96984.31;;;1.66;100.00
23303;BME280;11820;48.738;9.092;2023-02-28T10:48:38;96977.78;;;1.73;100.00
23303;BME280;11820;48.738;9.092;2023-02-28T10:51:06;96984.84;;;2.01;100.00
23303;BME280;11820;48.738;9.092;2023-02-28T10:53:35;96991.97;;;1.55;100.00
23303;BME280;11820;48.738;9.092;2023-02-28T10:58:59;96992.78;;;1.87;100.00
23303;BME280;11820;48.738;9.092;2023-02-28T11:01:46;96984.84;;;2.01;100.00
23303;BME280;11820;48.738;9.092;2023-02-28T11:09:34;96986.38;;;2.13;100.00
23303;BME280;11820;48.738;9.092;2023-02-28T11:12:02;96985.66;;;2.22;100.00
23303;BME280;11820;48.738;9.092;2023-02-28T11:14:31;96976.63;;;2.18;100.00
23303;BME280;11820;48.738;9.092;2023-02-28T11:17:11;96975.88;;;2.27;100.00
23303;BME280;11820;48.738;9.092;2023-02-28T11:19:40;96975.75;;;2.49;100.00
23303;BME280;11820;48.738;9.092;2023-02-28T11:22:09;96973.63;;;2.54;100.00
23303;BME280;11820;48.738;9.092;2023-02-28T11:24:44;96977.03;;;2.94;100.00
23303;BME280;11820;48.738;9.092;2023-02-28T11:29:54;96987.13;;;2.45;100.00
23303;BME280;11820;48.738;9.092;2023-02-28T11:32:21;96989.19;;;2.51;100.00
23303;BME280;11820;48.738;9.092;2023-02-28T11:37:28;96979.38;;;2.26;100.00
23303;BME280;11820;48.738;9.092;2023-02-28T11:39:55;96977.50;;;2.28;100.00
23303;BME280;11820;48.738;9.092;2023-02-28T11:46:06;96943.13;;;10.03;87.47
23303;BME280;11820;48.738;9.092;2023-02-28T11:56:37;96936.69;;;11.66;41.76
23303;BME280;11820;48.738;9.092;2023-02-28T12:08:01;96898.66;;;19.65;32.04
23303;BME280;11820;48.738;9.092;2023-02-28T12:10:30;96897.78;;;19.87;31.42
23303;BME280;11820;48.738;9.092;2023-02-28T12:13:26;96911.56;;;17.11;33.31
23303;BME280;11820;48.738;9.092;2023-02-28T12:18:47;96915.56;;;13.14;36.58
23303;BME280;11820;48.738;9.092;2023-02-28T12:26:40;96922.53;;;10.32;44.80
23303;BME280;11820;48.738;9.092;2023-02-28T12:31:43;96934.34;;;8.44;48.95
23303;BME280;11820;48.738;9.092;2023-02-28T12:34:13;96937.78;;;7.32;50.25
23303;BME280;11820;48.738;9.092;2023-02-28T12:36:43;96930.13;;;7.64;50.34
23303;BME280;11820;48.738;9.092;2023-02-28T12:39:23;96937.03;;;7.55;52.68
23303;BME280;11820;48.738;9.092;2023-02-28T12:42:01;96921.78;;;8.33;51.72
23303;BME280;11820;48.738;9.092;2023-02-28T12:44:49;96925.63;;;7.82;53.66
23303;BME280;11820;48.738;9.092;2023-02-28T12:47:17;96904.69;;;9.33;50.40
23303;BME280;11820;48.738;9.092;2023-02-28T12:49:51;96895.69;;;9.52;49.29
23303;BME280;11820;48.738;9.092;2023-02-28T13:00:46;96894.09;;;9.51;48.36
23303;BME280;11820;48.738;9.092;2023-02-28T13:03:57;96899.03;;;9.38;48.02
23303;BME280;11820;48.738;9.092;2023-02-28T13:06:10;96915.19;;;7.99;50.62
23303;BME280;11820;48.738;9.092;2023-02-28T13:09:05;96912.28;;;7.70;51.38
23303;BME280;11820;48.738;9.092;2023-02-28T13:11:40;96895.88;;;8.27;50.80
23303;BME280;11820;48.738;9.092;2023-02-28T13:14:20;96901.25;;;8.72;49.72
23303;BME280;11820;48.738;9.092;2023-02-28T13:19:24;96894.06;;;9.28;49.19
23303;BME280;11820;48.738;9.092;2023-02-28T13:21:51;96900.56;;;9.47;48.77
23303;BME280;11820;48.738;9.092;2023-02-28T13:29:43;96888.34;;;9.41;47.49
23303;BME280;11820;48.738;9.092;2023-02-28T13:34:35;96899.16;;;9.66;46.94
23303;BME280;11820;48.738;9.092;2023-02-28T13:39:51;96881.28;;;10.39;46.27
23303;BME280;11820;48.738;9.092;2023-02-28T13:47:41;96892.28;;;10.04;47.38
23303;BME280;11820;48.738;9.092;2023-02-28T13:50:36;96893.84;;;9.07;48.34
23303;BME280;11820;48.738;9.092;2023-02-28T13:58:41;96902.28;;;9.84;48.34
23303;BME280;11820;48.738;9.092;2023-02-28T14:04:33;96907.13;;;7.94;51.00
23303;BME280;11820;48.738;9.092;2023-02-28T14:07:07;96901.19;;;8.01;50.32
23303;BME280;11820;48.738;9.092;2023-02-28T14:09:41;96886.53;;;9.49;48.95
23303;BME280;11820;48.738;9.092;2023-02-28T14:18:00;96891.22;;;8.85;49.47
23303;BME280;11820;48.738;9.092;2023-02-28T14:20:29;96884.38;;;9.61;49.42
23303;BME280;11820;48.738;9.092;2023-02-28T14:26:06;96887.59;;;9.55;48.53
23303;BME280;11820;48.738;9.092;2023-02-28T14:32:02;96883.56;;;9.30;47.82
23303;BME280;11820;48.738;9.092;2023-02-28T14:34:57;96883.81;;;9.20;48.54
23303;BME280;11820;48.738;9.092;2023-02-28T14:37:29;96888.78;;;9.52;48.04
23303;BME280;11820;48.738;9.092;2023-02-28T14:39:57;96884.66;;;9.13;48.13
23303;BME280;11820;48.738;9.092;2023-02-28T14:42:34;96896.44;;;9.07;48.34
23303;BME280;11820;48.738;9.092;2023-02-28T14:45:01;96892.28;;;8.60;49.05
23303;BME280;11820;48.738;9.092;2023-02-28T14:47:31;96894.84;;;8.60;48.14
23303;BME280;11820;48.738;9.092;2023-02-28T14:49:58;96893.03;;;9.15;48.19
23303;BME280;11820;48.738;9.092;2023-02-28T14:52:26;96885.34;;;9.60;47.83
23303;BME280;11820;48.738;9.092;2023-02-28T14:55:04;96886.75;;;9.62;47.77
23303;BME280;11820;48.738;9.092;2023-02-28T14:57:34;96896.97;;;8.95;47.92
23303;BME280;11820;48.738;9.092;2023-02-28T15:00:17;96888.69;;;9.38;48.48
23303;BME280;11820;48.738;9.092;2023-02-28T15:02:46;96890.03;;;9.26;47.43
23303;BME280;11820;48.738;9.092;2023-02-28T15:07:43;96900.28;;;9.42;48.30
23303;BME280;11820;48.738;9.092;2023-02-28T15:10:29;96904.13;;;9.46;47.53
23303;BME280;11820;48.738;9.092;2023-02-28T15:13:00;96903.78;;;8.88;47.66
23303;BME280;11820;48.738;9.092;2023-02-28T15:18:05;96899.38;;;9.35;48.32
23303;BME280;11820;48.738;9.092;2023-02-28T15:20:32;96901.69;;;9.22;48.39
23303;BME280;11820;48.738;9.092;2023-02-28T15:22:58;96904.78;;;9.70;47.96
23303;BME280;11820;48.738;9.092;2023-02-28T15:25:25;96900.19;;;10.02;47.14
23303;BME280;11820;48.738;9.092;2023-02-28T15:27:56;96907.00;;;9.51;47.74
23303;BME280;11820;48.738;9.092;2023-02-28T15:30:30;96903.03;;;9.40;48.23